createdAt,value
2022-12-08T00:02:26.245Z,16.9
2022-12-08T00:07:20.731Z,16.9
2022-12-08T00:12:15.576Z,16.8
2022-12-08T00:17:10.230Z,16.8
2022-12-08T00:22:04.758Z,16.8
2022-12-08T00:22:21.223Z,16.8
2022-12-08T00:27:13.051Z,16.7
2022-12-08T00:32:07.532Z,16.8
2022-12-08T00:37:01.873Z,16.7
2022-12-08T00:41:56.598Z,16.7
2022-12-08T00:46:51.292Z,16.7
2022-12-08T00:51:45.992Z,16.6
2022-12-08T00:56:40.917Z,16.6
2022-12-08T01:01:35.356Z,16.6
2022-12-08T01:06:30.102Z,16.6
2022-12-08T01:11:25.005Z,16.6
2022-12-08T01:16:19.182Z,16.6
2022-12-08T01:21:13.976Z,16.6
2022-12-08T01:26:08.831Z,16.5
2022-12-08T01:31:03.546Z,16.5
2022-12-08T01:35:57.691Z,16.4
2022-12-08T01:40:52.517Z,16.4
2022-12-08T01:45:47.152Z,16.4
2022-12-08T01:50:41.737Z,16.4
2022-12-08T01:55:36.612Z,16.4
2022-12-08T02:00:31.360Z,16.3
2022-12-08T02:05:26.074Z,16.3
2022-12-08T02:10:20.683Z,16.3
2022-12-08T02:15:15.414Z,16.2
2022-12-08T02:20:09.901Z,16.3
2022-12-08T02:25:04.802Z,16.2
2022-12-08T02:29:59.365Z,16.1
2022-12-08T02:34:54.105Z,16.2
2022-12-08T02:39:49.015Z,16.1
2022-12-08T02:44:43.669Z,16.2
2022-12-08T02:49:38.321Z,16.2
2022-12-08T02:54:33.121Z,16.2
2022-12-08T02:59:27.835Z,16.1
2022-12-08T03:04:22.617Z,16.1
2022-12-08T03:09:17.402Z,16.1
2022-12-08T03:14:12.159Z,16.1
2022-12-08T03:19:06.686Z,16
2022-12-08T03:24:01.354Z,16
2022-12-08T03:28:55.326Z,16
2022-12-08T03:33:50.048Z,16
2022-12-08T03:38:44.852Z,16
2022-12-08T03:43:39.422Z,16
2022-12-08T03:48:34.088Z,16
2022-12-08T03:53:28.918Z,15.9
2022-12-08T03:58:23.466Z,15.9
2022-12-08T04:03:18.278Z,15.9
2022-12-08T04:08:12.992Z,15.9
2022-12-08T04:13:07.735Z,15.9
2022-12-08T04:18:02.049Z,15.8
2022-12-08T04:22:56.905Z,15.8
2022-12-08T04:27:51.735Z,15.8
2022-12-08T04:32:47.597Z,15.8
2022-12-08T04:37:41.246Z,15.7
2022-12-08T04:42:35.863Z,15.8
2022-12-08T04:47:30.551Z,15.7
2022-12-08T04:52:25.664Z,15.8
2022-12-08T04:57:19.334Z,15.7
2022-12-08T05:02:13.980Z,15.7
2022-12-08T05:07:08.059Z,15.8
2022-12-08T05:12:02.809Z,16.1
2022-12-08T05:16:57.674Z,16.3
2022-12-08T05:21:52.686Z,16.7
2022-12-08T05:26:47.530Z,17
2022-12-08T05:31:42.684Z,17.3
2022-12-08T05:36:37.633Z,17.8
2022-12-08T05:41:32.737Z,18.4
2022-12-08T05:46:27.949Z,18.9
2022-12-08T05:51:22.981Z,19.3
2022-12-08T05:56:18.103Z,19.9
2022-12-08T06:01:13.182Z,20.5
2022-12-08T06:06:08.809Z,21
2022-12-08T06:11:04.073Z,21.5
2022-12-08T06:15:59.039Z,21.6
2022-12-08T06:20:53.969Z,21.6
2022-12-08T06:25:48.731Z,21.8
2022-12-08T06:30:44.373Z,21.9
2022-12-08T06:35:38.398Z,21.7
2022-12-08T06:40:33.275Z,21.6
2022-12-08T06:45:26.925Z,20.2
2022-12-08T06:50:22.271Z,20
2022-12-08T06:55:42.329Z,19.9
2022-12-08T07:00:11.580Z,19.9
2022-12-08T07:05:06.553Z,19.7
2022-12-08T07:10:01.403Z,19.6
2022-12-08T07:14:55.922Z,19.5
2022-12-08T07:19:50.715Z,19.4
2022-12-08T07:24:45.258Z,19.2
2022-12-08T07:29:39.986Z,19.1
2022-12-08T07:34:34.519Z,19
2022-12-08T07:39:29.278Z,18.9
2022-12-08T07:44:24.167Z,18.7
2022-12-08T07:49:18.830Z,18.5
2022-12-08T07:54:13.647Z,18.5
2022-12-08T07:59:07.535Z,18.4
2022-12-08T08:04:01.969Z,18.3
2022-12-08T08:08:56.704Z,18.2
2022-12-08T08:13:51.215Z,18.1
2022-12-08T08:18:45.925Z,17.8
2022-12-08T08:23:39.743Z,17.8
2022-12-08T08:28:34.375Z,17.7
2022-12-08T08:33:29.120Z,17.6
2022-12-08T08:38:22.950Z,17.5
2022-12-08T08:43:17.797Z,17.4
2022-12-08T08:48:12.372Z,17.5
2022-12-08T08:53:06.719Z,17.3
2022-12-08T08:58:01.415Z,17.3
2022-12-08T09:02:56.018Z,17.2
2022-12-08T09:07:50.651Z,17.2
2022-12-08T09:12:45.437Z,17
2022-12-08T09:17:40.327Z,17
2022-12-08T09:22:34.986Z,16.9
2022-12-08T09:27:28.959Z,16.9
2022-12-08T09:32:23.528Z,16.9
2022-12-08T09:37:17.976Z,16.8
2022-12-08T09:42:12.359Z,16.6
2022-12-08T09:47:07.402Z,16.6
2022-12-08T09:52:02.090Z,16.6
2022-12-08T09:56:59.165Z,16.6
2022-12-08T10:01:53.486Z,16.6
2022-12-08T10:06:48.129Z,16.5
2022-12-08T10:11:42.549Z,16.4
2022-12-08T10:16:37.219Z,16.3
2022-12-08T10:21:31.843Z,16.4
2022-12-08T10:26:25.944Z,16.3
2022-12-08T10:31:20.652Z,16.3
2022-12-08T10:36:14.418Z,16.3
2022-12-08T10:41:08.204Z,16.3
2022-12-08T10:46:02.255Z,16.2
2022-12-08T10:50:56.410Z,16.1
2022-12-08T10:55:50.847Z,16.1
2022-12-08T11:00:45.476Z,16
2022-12-08T11:05:40.035Z,16
2022-12-08T11:10:34.305Z,16
2022-12-08T11:15:28.872Z,15.9
2022-12-08T11:20:23.551Z,15.9
2022-12-08T11:25:18.421Z,15.8
2022-12-08T11:30:14.399Z,15.8
2022-12-08T11:35:07.067Z,15.7
2022-12-08T11:40:01.900Z,15.7
2022-12-08T11:44:55.601Z,15.7
2022-12-08T11:49:50.376Z,15.6
2022-12-08T11:54:44.962Z,15.7
2022-12-08T11:59:39.718Z,15.6
2022-12-08T12:04:34.296Z,15.6
2022-12-08T12:09:28.860Z,15.5
2022-12-08T12:14:23.540Z,15.5
2022-12-08T12:19:18.269Z,15.6
2022-12-08T12:24:12.947Z,15.6
2022-12-08T12:29:07.705Z,15.5
2022-12-08T12:34:01.725Z,15.2
2022-12-08T12:38:56.674Z,15.4
2022-12-08T12:43:51.002Z,15.3
2022-12-08T12:48:45.762Z,15.3
2022-12-08T12:53:40.294Z,15.4
2022-12-08T12:58:34.919Z,15.3
2022-12-08T13:03:29.524Z,15.2
2022-12-08T13:08:24.290Z,15.2
2022-12-08T13:13:19.128Z,15.3
2022-12-08T13:18:13.633Z,15.1
2022-12-08T13:23:08.056Z,15.1
2022-12-08T13:28:02.699Z,15.1
2022-12-08T13:33:22.070Z,15.2
2022-12-08T13:37:54.691Z,15.1
2022-12-08T13:42:45.269Z,15.1
2022-12-08T13:47:59.836Z,15.1
2022-12-08T13:53:56.306Z,15
2022-12-08T13:57:28.993Z,15
2022-12-08T14:02:22.687Z,15
2022-12-08T14:07:17.387Z,15
2022-12-08T14:12:11.539Z,14.6
2022-12-08T14:17:05.748Z,14.4
2022-12-08T14:22:00.563Z,14.6
2022-12-08T14:26:55.330Z,14.7
2022-12-08T14:31:49.927Z,15
2022-12-08T14:36:44.650Z,15
2022-12-08T14:41:39.446Z,14.9
2022-12-08T14:46:34.363Z,15
2022-12-08T14:51:29.248Z,15.2
2022-12-08T14:56:24.035Z,15.6
2022-12-08T15:01:18.960Z,16
2022-12-08T15:06:13.926Z,16.2
2022-12-08T15:11:08.364Z,16.8
2022-12-08T15:16:03.653Z,17.1
2022-12-08T15:20:58.328Z,17.5
2022-12-08T15:25:53.572Z,18.2
2022-12-08T15:30:48.185Z,18.5
2022-12-08T15:35:42.741Z,18.6
2022-12-08T15:40:36.728Z,18.7
2022-12-08T15:45:31.256Z,18.8
2022-12-08T15:50:25.897Z,18.8
2022-12-08T15:55:19.732Z,18.7
2022-12-08T16:00:30.528Z,18.7
2022-12-08T16:10:02.994Z,18.6
2022-12-08T16:19:52.191Z,18.4
2022-12-08T16:24:46.374Z,18.5
2022-12-08T16:29:41.673Z,18.6
2022-12-08T16:34:36.113Z,18.9
2022-12-08T16:39:30.717Z,19.2
2022-12-08T16:44:25.757Z,19.6
2022-12-08T16:49:20.958Z,19.8
2022-12-08T16:54:16.426Z,20.3
2022-12-08T16:59:11.379Z,20.6
2022-12-08T17:04:30.240Z,20.8
2022-12-08T17:09:01.704Z,21
2022-12-08T17:13:56.577Z,21
2022-12-08T17:18:51.487Z,20.9
2022-12-08T17:23:46.273Z,20.9
2022-12-08T17:29:01.104Z,20.8
2022-12-08T17:33:34.702Z,20.9
2022-12-08T17:38:28.680Z,20.7
2022-12-08T17:43:23.251Z,20.6
2022-12-08T17:48:17.497Z,20.6
2022-12-08T17:53:12.194Z,20.5
2022-12-08T17:58:06.701Z,20.5
2022-12-08T18:03:01.445Z,20.3
2022-12-08T18:07:56.529Z,20.1
2022-12-08T18:12:51.020Z,19.9
2022-12-08T18:17:45.519Z,19.8
2022-12-08T18:22:40.132Z,19.7
2022-12-08T18:27:38.616Z,19.6
2022-12-08T18:32:29.567Z,19.4
2022-12-08T18:37:24.419Z,19.3
2022-12-08T18:42:18.856Z,19.1
2022-12-08T18:47:13.571Z,19.2
2022-12-08T18:52:08.515Z,19.3
2022-12-08T18:57:03.491Z,19.6
2022-12-08T19:01:58.515Z,20
2022-12-08T19:06:53.588Z,20.4
2022-12-08T19:11:47.983Z,20.7
2022-12-08T19:16:42.855Z,21.1
2022-12-08T19:21:41.486Z,21.5
2022-12-08T19:26:32.979Z,21.6
2022-12-08T19:31:27.729Z,21.7
2022-12-08T19:36:21.836Z,21.8
2022-12-08T19:41:16.400Z,21.7
2022-12-08T19:46:11.379Z,21.7
2022-12-08T19:51:05.901Z,21.6
2022-12-08T19:56:00.461Z,21.4
2022-12-08T20:00:55.210Z,21.4
2022-12-08T20:05:49.968Z,21.1
2022-12-08T20:10:44.668Z,20.9
2022-12-08T20:15:39.320Z,20.8
2022-12-08T20:20:34.131Z,20.7
2022-12-08T20:25:30.954Z,20.6
2022-12-08T20:30:25.589Z,20.4
2022-12-08T20:35:19.845Z,20.3
2022-12-08T20:40:14.638Z,20.3
2022-12-08T20:45:09.651Z,20
2022-12-08T20:50:04.463Z,19.8
2022-12-08T20:54:58.606Z,19.8
2022-12-08T20:59:53.402Z,19.6
2022-12-08T21:04:48.109Z,19.4
2022-12-08T21:09:42.253Z,19.3
2022-12-08T21:14:36.800Z,19.3
2022-12-08T21:19:31.258Z,19.1
2022-12-08T21:24:30.373Z,19.1
2022-12-08T21:29:20.589Z,19
2022-12-08T21:34:15.313Z,18.9
2022-12-08T21:39:10.279Z,18.8
2022-12-08T21:44:04.798Z,18.7
2022-12-08T21:48:59.513Z,18.6
2022-12-08T21:53:53.821Z,18.5
2022-12-08T21:58:48.543Z,18.4
2022-12-08T22:03:43.533Z,18.3
2022-12-08T22:08:37.991Z,18.2
2022-12-08T22:13:32.408Z,18.1
2022-12-08T22:18:27.087Z,18
2022-12-08T22:23:21.702Z,17.9
2022-12-08T22:28:17.041Z,17.8
2022-12-08T22:33:11.746Z,17.7
2022-12-08T22:38:06.589Z,17.7
2022-12-08T22:43:01.232Z,17.6
2022-12-08T22:47:56.028Z,17.5
2022-12-08T22:52:50.577Z,17.5
2022-12-08T22:57:45.315Z,17.4
2022-12-08T23:02:39.842Z,17.3
2022-12-08T23:07:34.464Z,17.3
2022-12-08T23:12:28.509Z,17.3
2022-12-08T23:17:23.342Z,17.2
2022-12-08T23:22:17.666Z,17.1
2022-12-08T23:27:12.219Z,17
2022-12-08T23:32:06.304Z,17
2022-12-08T23:37:00.993Z,17.1
2022-12-08T23:41:55.493Z,17
2022-12-08T23:46:49.822Z,17
2022-12-08T23:51:44.170Z,16.9
2022-12-08T23:56:38.641Z,16.8
